createdAt,value
2023-04-07T00:00:20.629Z,60.75
2023-04-07T00:05:22.285Z,60.30
2023-04-07T00:10:24.833Z,60.04
2023-04-07T00:15:26.624Z,59.50
2023-04-07T00:20:28.418Z,58.95
2023-04-07T00:25:30.026Z,58.89
2023-04-07T00:30:31.673Z,58.84
2023-04-07T00:35:33.360Z,58.62
2023-04-07T00:40:35.028Z,58.32
2023-04-07T00:45:38.112Z,58.48
2023-04-07T00:50:40.021Z,58.16
2023-04-07T00:55:41.720Z,58.01
2023-04-07T01:00:55.396Z,58.26
2023-04-07T01:06:02.176Z,57.98
2023-04-07T01:11:13.319Z,58.11
2023-04-07T01:16:30.466Z,57.90
2023-04-07T01:21:35.164Z,57.59
2023-04-07T01:26:38.217Z,58.13
2023-04-07T01:31:42.109Z,57.81
2023-04-07T01:36:47.038Z,57.78
2023-04-07T01:41:50.824Z,58.33
2023-04-07T01:46:53.110Z,57.95
2023-04-07T01:51:56.100Z,58.16
2023-04-07T01:56:57.785Z,58.32
2023-04-07T02:02:00.647Z,58.39
2023-04-07T02:07:09.644Z,58.01
2023-04-07T02:12:17.404Z,58.34
2023-04-07T02:17:34.915Z,58.32
2023-04-07T02:22:38.579Z,58.09
2023-04-07T02:27:40.289Z,58.32
2023-04-07T02:32:42.097Z,58.42
2023-04-07T02:37:45.541Z,58.13
2023-04-07T02:42:48.394Z,58.68
2023-04-07T02:47:50.174Z,58.60
2023-04-07T02:52:52.991Z,58.47
2023-04-07T02:57:54.693Z,58.90
2023-04-07T03:03:10.189Z,59.39
2023-04-07T03:08:14.962Z,58.95
2023-04-07T03:13:19.122Z,59.23
2023-04-07T03:18:20.974Z,59.65
2023-04-07T03:23:24.036Z,59.75
2023-04-07T03:28:26.598Z,60.04
2023-04-07T03:33:29.604Z,60.34
2023-04-07T03:38:31.738Z,60.60
2023-04-07T03:43:37.006Z,60.58
2023-04-07T03:48:39.169Z,60.97
2023-04-07T03:53:43.277Z,61.38
2023-04-07T03:58:59.982Z,60.81
2023-04-07T04:04:06.442Z,61.35
2023-04-07T04:09:08.192Z,61.31
2023-04-07T04:14:14.450Z,61.65
2023-04-07T04:19:18.271Z,61.14
2023-04-07T04:24:20.196Z,61.75
2023-04-07T04:29:23.741Z,61.20
2023-04-07T04:34:27.611Z,60.88
2023-04-07T04:39:30.602Z,60.95
2023-04-07T04:44:33.081Z,60.81
2023-04-07T04:49:37.366Z,60.69
2023-04-07T04:54:39.682Z,61.08
2023-04-07T04:59:42.623Z,60.60
2023-04-07T05:04:44.492Z,60.73
2023-04-07T05:10:02.605Z,60.52
2023-04-07T05:15:07.278Z,61.03
2023-04-07T05:20:10.407Z,61.38
2023-04-07T05:25:15.083Z,61.37
2023-04-07T05:30:19.834Z,61.17
2023-04-07T05:35:21.602Z,60.32
2023-04-07T05:40:30.347Z,60.50
2023-04-07T05:45:35.595Z,60.42
2023-04-07T05:50:37.665Z,60.60
2023-04-07T05:55:43.809Z,60.43
2023-04-07T06:00:50.857Z,60.42
2023-04-07T06:05:53.596Z,60.14
2023-04-07T06:10:56.842Z,59.63
2023-04-07T06:15:58.705Z,59.71
2023-04-07T06:21:00.795Z,59.56
2023-04-07T06:26:02.493Z,59.04
2023-04-07T06:31:05.212Z,59.27
2023-04-07T06:36:07.602Z,59.15
2023-04-07T06:41:16.886Z,59.07
2023-04-07T06:46:19.308Z,57.99
2023-04-07T06:51:21.096Z,57.86
2023-04-07T06:56:23.300Z,57.19
2023-04-07T07:01:24.952Z,56.62
2023-04-07T07:06:27.482Z,55.98
2023-04-07T07:11:29.250Z,55.12
2023-04-07T07:16:31.136Z,55.04
2023-04-07T07:21:32.988Z,55.08
2023-04-07T07:26:34.642Z,55.14
2023-04-07T07:31:36.335Z,55.46
2023-04-07T07:36:38.056Z,55.38
2023-04-07T07:41:40.372Z,55.04
2023-04-07T07:46:42.033Z,54.11
2023-04-07T07:51:44.195Z,54.65
2023-04-07T07:56:45.842Z,54.37
2023-04-07T08:01:47.663Z,54.01
2023-04-07T08:06:50.886Z,53.84
2023-04-07T08:11:52.815Z,54.18
2023-04-07T08:16:54.661Z,54.21
2023-04-07T08:21:56.990Z,54.74
2023-04-07T08:26:58.672Z,55.73
2023-04-07T08:32:00.477Z,55.70
2023-04-07T08:37:02.799Z,55.84
2023-04-07T08:42:04.655Z,56.84
2023-04-07T08:47:08.030Z,56.30
2023-04-07T08:52:13.220Z,56.23
2023-04-07T08:57:16.629Z,55.38
2023-04-07T09:02:19.569Z,55.34
2023-04-07T09:07:21.365Z,55.13
2023-04-07T09:12:23.052Z,55.04
2023-04-07T09:17:29.159Z,54.59
2023-04-07T09:22:47.252Z,54.88
2023-04-07T09:27:59.419Z,54.54
2023-04-07T09:33:02.066Z,53.88
2023-04-07T09:38:03.747Z,54.17
2023-04-07T09:43:06.467Z,54.68
2023-04-07T09:48:19.385Z,54.99
2023-04-07T09:53:23.267Z,54.86
2023-04-07T09:58:25.149Z,54.46
2023-04-07T10:03:28.283Z,54.71
2023-04-07T10:08:36.308Z,55.02
2023-04-07T10:13:40.770Z,55.72
2023-04-07T10:18:42.834Z,55.76
2023-04-07T10:23:59.986Z,58.07
2023-04-07T10:29:08.391Z,57.57
2023-04-07T10:34:10.035Z,58.52
2023-04-07T10:39:11.824Z,57.84
2023-04-07T10:44:43.060Z,57.86
2023-04-07T10:50:18.231Z,58.00
2023-04-07T10:55:39.182Z,58.91
2023-04-07T11:00:41.657Z,58.23
2023-04-07T11:05:43.633Z,58.09
2023-04-07T11:10:48.255Z,58.61
2023-04-07T11:15:53.928Z,59.94
2023-04-07T11:21:00.182Z,59.39
2023-04-07T11:26:03.176Z,58.35
2023-04-07T11:31:04.980Z,59.29
2023-04-07T11:36:07.664Z,58.60
2023-04-07T11:41:16.024Z,59.51
2023-04-07T11:46:18.940Z,59.13
2023-04-07T11:51:25.283Z,58.55
2023-04-07T11:56:28.086Z,60.43
2023-04-07T12:01:41.450Z,61.71
2023-04-07T12:06:44.866Z,62.43
2023-04-07T12:11:50.250Z,61.88
2023-04-07T12:16:53.357Z,62.90
2023-04-07T12:21:56.365Z,62.37
2023-04-07T12:26:58.233Z,62.82
2023-04-07T12:32:00.795Z,62.34
2023-04-07T12:37:02.454Z,61.55
2023-04-07T12:42:05.214Z,61.07
2023-04-07T12:47:07.056Z,62.31
2023-04-07T12:52:08.949Z,65.01
2023-04-07T12:57:11.109Z,66.08
2023-04-07T13:02:13.930Z,65.21
2023-04-07T13:07:16.282Z,66.66
2023-04-07T13:12:17.922Z,65.42
2023-04-07T13:17:19.724Z,65.45
2023-04-07T13:22:24.326Z,66.75
2023-04-07T13:27:27.481Z,66.08
2023-04-07T13:32:29.306Z,67.01
2023-04-07T13:37:31.154Z,67.72
2023-04-07T13:42:33.027Z,67.84
2023-04-07T13:47:35.418Z,68.27
2023-04-07T13:52:37.514Z,68.25
2023-04-07T13:57:39.392Z,67.09
2023-04-07T14:02:41.388Z,68.92
2023-04-07T14:07:43.191Z,69.50
2023-04-07T14:12:45.110Z,68.80
2023-04-07T14:17:47.044Z,70.25
2023-04-07T14:22:48.795Z,69.65
2023-04-07T14:27:52.244Z,69.83
2023-04-07T14:32:53.963Z,68.93
2023-04-07T14:37:56.853Z,69.44
2023-04-07T14:48:04.113Z,66.93
2023-04-07T14:53:06.687Z,67.21
2023-04-07T14:58:08.551Z,66.66
2023-04-07T15:03:14.362Z,67.99
2023-04-07T15:08:19.434Z,69.68
2023-04-07T15:13:21.838Z,69.48
2023-04-07T15:18:25.203Z,69.95
2023-04-07T15:23:27.045Z,69.40
2023-04-07T15:28:32.701Z,68.96
2023-04-07T15:33:37.807Z,69.99
2023-04-07T15:38:40.839Z,70.38
2023-04-07T15:43:43.184Z,69.76
2023-04-07T15:48:46.165Z,70.26
2023-04-07T15:53:48.595Z,70.06
2023-04-07T15:58:51.073Z,68.64
2023-04-07T16:03:54.163Z,68.61
2023-04-07T16:08:56.965Z,68.96
2023-04-07T16:13:59.281Z,69.08
2023-04-07T16:19:02.453Z,68.73
2023-04-07T16:24:04.469Z,68.67
2023-04-07T16:29:06.574Z,68.46
2023-04-07T16:34:08.556Z,68.85
2023-04-07T16:39:10.795Z,68.97
2023-04-07T16:44:12.747Z,71.41
2023-04-07T16:49:14.524Z,71.75
2023-04-07T16:54:16.191Z,71.34
2023-04-07T16:59:17.859Z,73.47
2023-04-07T17:04:19.645Z,73.40
2023-04-07T17:09:21.494Z,73.55
2023-04-07T17:14:23.354Z,73.91
2023-04-07T17:19:25.189Z,73.27
2023-04-07T17:24:26.885Z,73.03
2023-04-07T17:29:31.246Z,72.91
2023-04-07T17:34:33.085Z,73.90
2023-04-07T17:39:34.966Z,72.64
2023-04-07T17:44:37.487Z,72.80
2023-04-07T17:49:39.701Z,73.77
2023-04-07T17:54:41.773Z,74.81
2023-04-07T17:59:43.526Z,74.49
2023-04-07T18:04:45.652Z,72.83
2023-04-07T18:09:47.721Z,72.91
2023-04-07T18:14:49.474Z,73.71
2023-04-07T18:19:51.548Z,72.55
2023-04-07T18:24:53.214Z,72.97
2023-04-07T18:29:56.212Z,73.22
2023-04-07T18:34:57.965Z,73.02
2023-04-07T18:39:59.659Z,74.07
2023-04-07T18:45:01.542Z,74.84
2023-04-07T18:50:03.600Z,74.62
2023-04-07T18:55:06.060Z,75.91
2023-04-07T19:00:08.728Z,74.77
2023-04-07T19:05:13.498Z,73.84
2023-04-07T19:10:15.098Z,73.96
2023-04-07T19:15:16.810Z,73.82
2023-04-07T19:20:18.550Z,73.33
2023-04-07T19:25:20.395Z,73.72
2023-04-07T19:30:22.244Z,73.76
2023-04-07T19:35:23.909Z,73.94
2023-04-07T19:40:26.117Z,73.69
2023-04-07T19:45:27.847Z,73.88
2023-04-07T19:50:29.570Z,73.67
2023-04-07T19:55:31.217Z,73.79
2023-04-07T20:00:35.002Z,73.69
2023-04-07T20:05:37.178Z,73.46
2023-04-07T20:10:39.164Z,73.95
2023-04-07T20:15:41.012Z,73.98
2023-04-07T20:20:42.616Z,73.73
2023-04-07T20:25:44.421Z,74.00
2023-04-07T20:30:46.380Z,73.85
2023-04-07T20:35:49.084Z,74.17
2023-04-07T20:40:51.133Z,74.39
2023-04-07T20:45:53.521Z,74.55
2023-04-07T20:50:55.206Z,75.11
2023-04-07T20:55:59.044Z,75.92
2023-04-07T21:01:01.554Z,79.04
2023-04-07T21:06:04.746Z,81.23
2023-04-07T21:11:06.524Z,79.96
2023-04-07T21:16:08.662Z,81.57
2023-04-07T21:21:10.380Z,85.89
2023-04-07T21:26:12.068Z,90.72
2023-04-07T21:31:24.160Z,89.05
2023-04-07T21:36:27.016Z,87.06
2023-04-07T21:41:28.679Z,87.43
2023-04-07T21:46:30.893Z,86.99
2023-04-07T21:51:33.733Z,87.39
2023-04-07T21:56:35.840Z,87.96
2023-04-07T22:01:37.636Z,86.92
2023-04-07T22:06:39.605Z,87.99
2023-04-07T22:11:41.396Z,89.04
2023-04-07T22:16:43.127Z,89.53
2023-04-07T22:21:45.355Z,90.22
2023-04-07T22:26:47.000Z,91.27
2023-04-07T22:31:48.805Z,91.61
2023-04-07T22:36:50.528Z,91.32
2023-04-07T22:41:52.113Z,92.31
2023-04-07T22:46:54.021Z,91.95
2023-04-07T22:51:57.103Z,93.07
2023-04-07T22:56:58.918Z,92.67
2023-04-07T23:02:00.843Z,95.41
2023-04-07T23:07:02.746Z,94.67
2023-04-07T23:12:04.514Z,93.93
2023-04-07T23:17:06.776Z,95.15
2023-04-07T23:22:08.585Z,95.75
2023-04-07T23:27:10.387Z,95.02
2023-04-07T23:32:12.244Z,93.84
2023-04-07T23:37:21.295Z,93.93
2023-04-07T23:42:24.164Z,94.02
2023-04-07T23:47:26.408Z,93.56
2023-04-07T23:52:28.254Z,93.92
2023-04-07T23:57:30.061Z,93.56
